Ault, Kentucky
Current Conditions -  °F | °C
As of 7:10 AM on Saturday 20 Dec 2014 (Local Time) from KSYM Reporting Station
Overcast Overcast  
Wind Chill: -2°   Ceiling: 4700
Heat Index: -2°   Visibility: 8mi
Dew Point: -5°   Wind: 0mph
Humidity: 80%   Direction: NA
Pressure: 30.28"   Gusts: NA
Location:  38.3543°N, 83.1837°W
Report Text: KSYM 201210Z AUTO 00000KT 8SM BKN047 OVC070 M02/M05 A3028 RMK AO2
Loading
Personal Weather Stations






























Interactive Weather Map New forecast layout! Learn more

10-Day Weather Forecast

Advertisements
Track Severe Weather on mobile